createdAt,value
2023-03-06T00:01:48.609Z,62.05
2023-03-06T00:05:32.862Z,61.90
2023-03-06T00:09:15.553Z,61.93
2023-03-06T00:12:59.457Z,61.72
2023-03-06T00:16:42.134Z,62.16
2023-03-06T00:20:25.124Z,61.50
2023-03-06T00:24:09.440Z,61.35
2023-03-06T00:27:52.336Z,61.22
2023-03-06T00:31:36.652Z,61.11
2023-03-06T00:35:19.506Z,61.47
2023-03-06T00:39:02.191Z,61.50
2023-03-06T00:42:46.378Z,61.29
2023-03-06T00:46:29.069Z,61.13
2023-03-06T00:50:12.585Z,61.24
2023-03-06T00:53:55.284Z,61.33
2023-03-06T00:57:37.974Z,61.56
2023-03-06T01:01:23.234Z,61.58
2023-03-06T01:05:06.886Z,61.52
2023-03-06T01:08:49.564Z,61.56
2023-03-06T01:12:32.339Z,61.54
2023-03-06T01:16:17.173Z,61.50
2023-03-06T01:20:01.208Z,61.35
2023-03-06T01:23:43.956Z,61.15
2023-03-06T01:27:26.691Z,61.26
2023-03-06T01:31:10.038Z,61.27
2023-03-06T01:34:52.652Z,61.45
2023-03-06T01:38:37.034Z,61.33
2023-03-06T01:42:19.699Z,61.49
2023-03-06T01:46:38.703Z,61.78
2023-03-06T01:50:21.399Z,61.46
2023-03-06T01:54:08.863Z,61.29
2023-03-06T01:57:53.697Z,61.25
2023-03-06T02:01:36.667Z,61.18
2023-03-06T02:05:19.321Z,61.14
2023-03-06T02:09:01.984Z,60.84
2023-03-06T02:12:46.695Z,61.21
2023-03-06T02:16:31.765Z,61.16
2023-03-06T02:20:18.458Z,61.41
2023-03-06T02:24:08.265Z,61.81
2023-03-06T02:27:52.199Z,62.09
2023-03-06T02:31:35.585Z,62.36
2023-03-06T02:35:20.568Z,62.32
2023-03-06T02:39:03.801Z,62.64
2023-03-06T02:42:47.349Z,62.67
2023-03-06T02:46:31.622Z,62.78
2023-03-06T02:50:14.319Z,62.65
2023-03-06T02:53:56.974Z,62.92
2023-03-06T02:57:39.609Z,63.16
2023-03-06T03:01:22.977Z,62.93
2023-03-06T03:05:08.096Z,63.12
2023-03-06T03:08:50.700Z,63.17
2023-03-06T03:12:33.511Z,63.46
2023-03-06T03:16:16.704Z,63.77
2023-03-06T03:19:59.417Z,63.18
2023-03-06T03:23:43.473Z,63.57
2023-03-06T03:27:26.173Z,64.36
2023-03-06T03:31:10.491Z,64.18
2023-03-06T03:34:53.369Z,64.34
2023-03-06T03:38:36.486Z,64.65
2023-03-06T03:42:20.586Z,64.74
2023-03-06T03:46:03.260Z,64.81
2023-03-06T03:49:46.064Z,65.27
2023-03-06T03:53:28.740Z,65.15
2023-03-06T03:57:11.481Z,65.13
2023-03-06T04:00:55.489Z,65.07
2023-03-06T04:04:38.132Z,65.38
2023-03-06T04:08:20.878Z,65.30
2023-03-06T04:12:03.550Z,65.41
2023-03-06T04:15:46.203Z,65.83
2023-03-06T04:19:30.228Z,65.99
2023-03-06T04:23:13.047Z,66.49
2023-03-06T04:26:55.677Z,66.17
2023-03-06T04:30:38.430Z,66.07
2023-03-06T04:34:21.123Z,66.20
2023-03-06T04:38:05.282Z,66.08
2023-03-06T04:41:47.928Z,66.03
2023-03-06T04:45:31.720Z,66.01
2023-03-06T04:49:14.404Z,65.62
2023-03-06T04:52:57.041Z,65.13
2023-03-06T04:56:41.081Z,65.39
2023-03-06T05:00:29.335Z,65.45
2023-03-06T05:04:11.956Z,64.79
2023-03-06T05:07:54.886Z,65.04
2023-03-06T05:11:37.542Z,65.21
2023-03-06T05:15:21.669Z,65.38
2023-03-06T05:19:04.356Z,65.67
2023-03-06T05:22:46.973Z,65.92
2023-03-06T05:26:29.614Z,65.83
2023-03-06T05:30:14.443Z,65.65
2023-03-06T05:34:00.638Z,65.75
2023-03-06T05:37:43.267Z,65.77
2023-03-06T05:41:26.069Z,65.66
2023-03-06T05:45:09.983Z,65.82
2023-03-06T05:48:53.093Z,65.76
2023-03-06T05:52:37.094Z,65.66
2023-03-06T05:56:21.743Z,65.72
2023-03-06T06:00:05.138Z,65.88
2023-03-06T06:03:48.086Z,64.94
2023-03-06T06:07:30.756Z,65.28
2023-03-06T06:11:15.144Z,64.77
2023-03-06T06:14:57.902Z,65.14
2023-03-06T06:18:41.411Z,65.31
2023-03-06T06:22:24.361Z,64.66
2023-03-06T06:26:09.074Z,64.53
2023-03-06T06:29:53.415Z,64.69
2023-03-06T06:33:36.074Z,64.58
2023-03-06T06:37:18.704Z,64.59
2023-03-06T06:41:33.429Z,64.40
2023-03-06T06:45:10.376Z,64.53
2023-03-06T06:48:54.616Z,64.42
2023-03-06T06:52:39.338Z,64.60
2023-03-06T06:56:21.993Z,64.64
2023-03-06T07:00:05.799Z,63.52
2023-03-06T07:03:49.836Z,63.70
2023-03-06T07:07:32.743Z,63.40
2023-03-06T07:11:18.013Z,63.61
2023-03-06T07:15:00.669Z,62.95
2023-03-06T07:18:43.333Z,62.71
2023-03-06T07:22:28.141Z,62.42
2023-03-06T07:26:12.016Z,62.27
2023-03-06T07:29:54.665Z,61.84
2023-03-06T07:33:37.317Z,62.00
2023-03-06T07:37:19.966Z,61.47
2023-03-06T07:41:05.077Z,61.72
2023-03-06T07:44:47.709Z,61.87
2023-03-06T07:48:30.370Z,66.87
2023-03-06T07:52:12.963Z,62.74
2023-03-06T07:55:55.800Z,61.92
2023-03-06T07:59:39.796Z,62.19
2023-03-06T08:03:22.436Z,62.70
2023-03-06T08:07:05.231Z,63.27
2023-03-06T08:10:48.945Z,63.88
2023-03-06T08:14:31.616Z,64.31
2023-03-06T08:18:15.581Z,64.42
2023-03-06T08:21:58.203Z,64.75
2023-03-06T08:25:40.846Z,64.43
2023-03-06T08:29:23.486Z,64.54
2023-03-06T08:33:06.135Z,64.47
2023-03-06T08:36:50.154Z,64.57
2023-03-06T08:40:32.770Z,65.02
2023-03-06T08:44:15.354Z,64.26
2023-03-06T08:47:58.179Z,64.08
2023-03-06T08:51:40.847Z,64.24
2023-03-06T08:55:24.778Z,63.37
2023-03-06T08:59:09.040Z,63.31
2023-03-06T09:02:51.627Z,63.63
2023-03-06T09:06:36.388Z,63.76
2023-03-06T09:10:20.883Z,62.94
2023-03-06T09:14:05.649Z,62.39
2023-03-06T09:17:48.471Z,61.43
2023-03-06T09:21:31.155Z,61.92
2023-03-06T09:25:14.810Z,61.77
2023-03-06T09:28:58.577Z,61.01
2023-03-06T09:32:42.738Z,60.82
2023-03-06T09:36:25.487Z,59.37
2023-03-06T09:40:09.065Z,59.29
2023-03-06T09:43:54.266Z,59.69
2023-03-06T09:47:45.750Z,59.47
2023-03-06T09:51:34.316Z,58.16
2023-03-06T09:55:19.655Z,58.41
2023-03-06T09:59:07.701Z,58.03
2023-03-06T10:02:57.130Z,58.09
2023-03-06T10:06:48.247Z,58.54
2023-03-06T10:10:37.082Z,59.22
2023-03-06T10:14:25.390Z,57.72
2023-03-06T10:18:11.768Z,57.87
2023-03-06T10:21:58.526Z,57.65
2023-03-06T10:25:47.684Z,57.45
2023-03-06T10:29:42.218Z,58.04
2023-03-06T10:33:34.755Z,58.39
2023-03-06T10:37:20.512Z,57.56
2023-03-06T10:41:08.392Z,57.77
2023-03-06T10:45:07.458Z,57.59
2023-03-06T10:48:58.972Z,57.70
2023-03-06T10:52:41.723Z,58.21
2023-03-06T10:56:29.626Z,57.60
2023-03-06T11:00:32.704Z,57.67
2023-03-06T11:04:23.208Z,58.34
2023-03-06T11:08:08.630Z,58.68
2023-03-06T11:11:51.420Z,58.62
2023-03-06T11:15:34.674Z,58.08
2023-03-06T11:19:22.825Z,57.38
2023-03-06T11:23:08.323Z,57.02
2023-03-06T11:26:53.836Z,57.27
2023-03-06T11:30:40.897Z,57.64
2023-03-06T11:34:35.435Z,57.85
2023-03-06T11:38:22.091Z,58.17
2023-03-06T11:42:12.269Z,58.33
2023-03-06T11:45:59.295Z,58.66
2023-03-06T11:49:45.967Z,59.00
2023-03-06T11:53:32.842Z,59.25
2023-03-06T11:57:17.171Z,59.33
2023-03-06T12:01:07.576Z,60.06
2023-03-06T12:04:57.058Z,60.03
2023-03-06T12:08:51.378Z,61.01
2023-03-06T12:12:51.777Z,61.53
2023-03-06T12:16:47.436Z,61.79
2023-03-06T12:20:44.290Z,62.23
2023-03-06T12:24:53.551Z,62.30
2023-03-06T12:28:46.413Z,61.53
2023-03-06T12:32:38.108Z,61.73
2023-03-06T12:36:36.766Z,61.05
2023-03-06T12:40:41.543Z,60.65
2023-03-06T12:44:36.503Z,60.08
2023-03-06T12:48:23.394Z,59.05
2023-03-06T12:52:08.824Z,59.33
2023-03-06T12:55:51.992Z,59.44
2023-03-06T12:59:40.144Z,59.89
2023-03-06T13:03:26.065Z,60.41
2023-03-06T13:07:22.811Z,60.96
2023-03-06T13:11:28.319Z,61.00
2023-03-06T13:15:34.417Z,60.79
2023-03-06T13:19:19.651Z,61.29
2023-03-06T13:23:36.043Z,61.41
2023-03-06T13:27:45.861Z,61.16
2023-03-06T13:31:30.654Z,60.81
2023-03-06T13:35:46.978Z,61.54
2023-03-06T13:40:13.265Z,61.95
2023-03-06T13:43:58.523Z,60.94
2023-03-06T13:48:10.688Z,60.95
2023-03-06T13:52:03.037Z,60.87
2023-03-06T13:55:52.656Z,60.72
2023-03-06T14:00:09.468Z,60.12
2023-03-06T14:04:27.285Z,60.79
2023-03-06T14:08:11.498Z,60.60
2023-03-06T14:11:55.995Z,59.94
2023-03-06T14:15:46.306Z,60.02
2023-03-06T14:19:32.341Z,59.61
2023-03-06T14:23:17.339Z,59.63
2023-03-06T14:26:59.934Z,59.30
2023-03-06T14:30:50.923Z,59.01
2023-03-06T14:34:37.624Z,59.07
2023-03-06T14:38:20.274Z,59.50
2023-03-06T14:42:07.503Z,59.61
2023-03-06T14:45:56.577Z,59.50
2023-03-06T14:49:39.344Z,59.39
2023-03-06T14:53:26.350Z,59.46
2023-03-06T14:57:14.319Z,58.66
2023-03-06T15:01:01.284Z,59.32
2023-03-06T15:04:46.116Z,58.86
2023-03-06T15:08:30.693Z,59.86
2023-03-06T15:12:35.141Z,58.55
2023-03-06T15:16:30.057Z,58.13
2023-03-06T15:20:51.640Z,58.50
2023-03-06T15:24:35.728Z,58.81
2023-03-06T15:28:27.170Z,59.13
2023-03-06T15:32:31.204Z,58.89
2023-03-06T15:36:29.583Z,58.54
2023-03-06T15:40:19.132Z,58.92
2023-03-06T15:44:03.256Z,58.88
2023-03-06T15:47:48.874Z,58.70
2023-03-06T15:51:32.142Z,58.40
2023-03-06T15:55:15.834Z,56.46
2023-03-06T15:58:59.391Z,56.63
2023-03-06T16:02:42.117Z,56.75
2023-03-06T16:06:26.144Z,56.32
2023-03-06T16:10:12.945Z,56.51
2023-03-06T16:13:56.275Z,56.60
2023-03-06T16:17:39.091Z,56.78
2023-03-06T16:21:21.866Z,57.04
2023-03-06T16:25:06.848Z,56.96
2023-03-06T16:28:49.559Z,57.15
2023-03-06T16:32:32.285Z,57.21
2023-03-06T16:36:17.901Z,57.98
2023-03-06T16:40:00.532Z,57.67
2023-03-06T16:43:44.590Z,57.34
2023-03-06T16:47:27.267Z,57.48
2023-03-06T16:51:10.706Z,57.86
2023-03-06T16:54:53.358Z,57.44
2023-03-06T16:58:35.970Z,57.65
2023-03-06T17:02:20.064Z,58.07
2023-03-06T17:06:03.095Z,58.04
2023-03-06T17:09:45.791Z,57.68
2023-03-06T17:13:28.449Z,57.71
2023-03-06T17:17:11.101Z,57.44
2023-03-06T17:20:55.670Z,57.38
2023-03-06T17:24:38.284Z,57.52
2023-03-06T17:28:20.937Z,56.51
2023-03-06T17:32:03.735Z,57.55
2023-03-06T17:35:46.910Z,57.68
2023-03-06T17:39:34.523Z,58.07
2023-03-06T17:43:17.194Z,58.33
2023-03-06T17:47:00.110Z,58.43
2023-03-06T17:50:43.480Z,58.27
2023-03-06T17:54:26.932Z,58.08
2023-03-06T17:58:12.371Z,58.41
2023-03-06T18:01:57.118Z,58.58
2023-03-06T18:05:40.144Z,58.47
2023-03-06T18:09:22.790Z,58.66
2023-03-06T18:13:05.662Z,58.67
2023-03-06T18:16:49.721Z,58.46
2023-03-06T18:20:32.834Z,58.86
2023-03-06T18:24:15.681Z,58.93
2023-03-06T18:27:58.418Z,58.49
2023-03-06T18:31:42.565Z,58.88
2023-03-06T18:35:26.703Z,58.60
2023-03-06T18:39:10.617Z,58.76
2023-03-06T18:42:53.362Z,59.04
2023-03-06T18:46:38.193Z,58.90
2023-03-06T18:50:21.142Z,58.39
2023-03-06T18:54:06.274Z,58.80
2023-03-06T18:57:48.996Z,58.58
2023-03-06T19:01:32.131Z,58.31
2023-03-06T19:05:14.940Z,58.43
2023-03-06T19:08:59.466Z,58.17
2023-03-06T19:12:43.502Z,58.21
2023-03-06T19:16:27.917Z,58.17
2023-03-06T19:20:12.082Z,58.12
2023-03-06T19:23:55.231Z,58.04
2023-03-06T19:27:39.235Z,58.12
2023-03-06T19:31:25.271Z,58.10
2023-03-06T19:35:10.940Z,58.18
2023-03-06T19:38:54.813Z,58.31
2023-03-06T19:42:37.516Z,58.34
2023-03-06T19:46:20.439Z,58.55
2023-03-06T19:50:05.190Z,58.34
2023-03-06T19:53:47.901Z,58.22
2023-03-06T19:57:30.581Z,58.13
2023-03-06T20:01:18.125Z,58.37
2023-03-06T20:05:00.816Z,58.12
2023-03-06T20:08:45.736Z,58.53
2023-03-06T20:12:28.515Z,58.37
2023-03-06T20:16:11.261Z,57.56
2023-03-06T20:19:54.276Z,58.05
2023-03-06T20:23:36.983Z,57.96
2023-03-06T20:27:21.102Z,58.19
2023-03-06T20:31:07.614Z,58.24
2023-03-06T20:34:50.582Z,58.49
2023-03-06T20:38:33.284Z,58.44
2023-03-06T20:42:17.651Z,58.58
2023-03-06T20:46:04.046Z,59.09
2023-03-06T20:49:46.859Z,58.75
2023-03-06T20:53:29.682Z,58.37
2023-03-06T20:57:12.465Z,58.52
2023-03-06T21:00:55.702Z,58.85
2023-03-06T21:04:41.033Z,59.03
2023-03-06T21:08:24.183Z,57.80
2023-03-06T21:12:07.250Z,58.42
2023-03-06T21:15:50.005Z,58.21
2023-03-06T21:19:32.692Z,58.48
2023-03-06T21:23:16.812Z,62.50
2023-03-06T21:26:59.758Z,64.50
2023-03-06T21:30:42.491Z,58.09
2023-03-06T21:34:25.444Z,57.94
2023-03-06T21:38:08.743Z,58.43
2023-03-06T21:41:52.792Z,58.70
2023-03-06T21:45:35.581Z,58.61
2023-03-06T21:49:18.467Z,58.88
2023-03-06T21:53:01.215Z,58.82
2023-03-06T21:56:43.933Z,59.03
2023-03-06T22:00:27.970Z,59.43
2023-03-06T22:04:10.994Z,59.21
2023-03-06T22:07:54.368Z,59.47
2023-03-06T22:11:37.851Z,59.81
2023-03-06T22:15:21.819Z,59.84
2023-03-06T22:19:05.979Z,59.74
2023-03-06T22:22:48.620Z,60.32
2023-03-06T22:26:31.455Z,60.31
2023-03-06T22:30:14.484Z,60.33
2023-03-06T22:33:58.784Z,60.37
2023-03-06T22:37:42.817Z,60.49
2023-03-06T22:41:26.853Z,60.67
2023-03-06T22:45:10.719Z,60.78
2023-03-06T22:48:56.859Z,60.42
2023-03-06T22:52:39.626Z,60.52
2023-03-06T22:56:23.908Z,60.72
2023-03-06T23:00:08.238Z,60.80
2023-03-06T23:03:52.366Z,60.52
2023-03-06T23:07:35.058Z,60.80
2023-03-06T23:11:19.499Z,60.85
2023-03-06T23:15:03.665Z,61.00
2023-03-06T23:18:46.453Z,61.26
2023-03-06T23:22:29.194Z,60.97
2023-03-06T23:26:14.677Z,61.01
2023-03-06T23:29:58.927Z,61.18
2023-03-06T23:33:43.142Z,61.12
2023-03-06T23:37:25.880Z,60.70
2023-03-06T23:41:10.284Z,61.06
2023-03-06T23:44:52.883Z,61.07
2023-03-06T23:48:36.547Z,61.32
2023-03-06T23:52:20.568Z,61.22
2023-03-06T23:56:05.997Z,61.39
2023-03-06T23:59:48.817Z,61.47
